createdAt,value
2023-02-19T00:01:11.800Z,1.40
2023-02-19T00:03:40.067Z,1.40
2023-02-19T00:06:09.159Z,1.35
2023-02-19T00:08:37.558Z,1.13
2023-02-19T00:11:09.591Z,1.27
2023-02-19T00:13:41.384Z,1.90
2023-02-19T00:16:09.929Z,1.30
2023-02-19T00:18:37.645Z,1.35
2023-02-19T00:21:05.357Z,1.35
2023-02-19T00:23:33.076Z,1.27
2023-02-19T00:26:17.539Z,1.02
2023-02-19T00:28:46.983Z,1.40
2023-02-19T00:31:20.753Z,1.50
2023-02-19T00:33:49.468Z,1.30
2023-02-19T00:36:17.452Z,1.17
2023-02-19T00:38:45.628Z,1.15
2023-02-19T00:41:20.220Z,1.45
2023-02-19T00:43:55.768Z,1.52
2023-02-19T00:46:25.235Z,1.30
2023-02-19T00:48:53.392Z,1.50
2023-02-19T00:51:21.928Z,1.20
2023-02-19T00:53:49.822Z,1.50
2023-02-19T00:56:17.478Z,1.20
2023-02-19T00:58:45.410Z,1.40
2023-02-19T01:01:13.315Z,1.40
2023-02-19T01:03:40.902Z,1.35
2023-02-19T01:06:09.481Z,1.48
2023-02-19T01:08:37.550Z,1.20
2023-02-19T01:11:05.741Z,1.42
2023-02-19T01:13:33.809Z,1.10
2023-02-19T01:16:10.050Z,1.40
2023-02-19T01:18:37.814Z,1.10
2023-02-19T01:21:07.112Z,1.23
2023-02-19T01:23:35.167Z,1.58
2023-02-19T01:26:07.037Z,1.25
2023-02-19T01:28:34.800Z,1.38
2023-02-19T01:31:03.395Z,1.30
2023-02-19T01:33:31.014Z,1.50
2023-02-19T01:35:58.968Z,1.33
2023-02-19T01:38:26.551Z,1.48
2023-02-19T01:40:57.885Z,1.45
2023-02-19T01:43:25.542Z,0.85
2023-02-19T01:45:53.090Z,1.40
2023-02-19T01:48:20.628Z,1.25
2023-02-19T01:50:51.193Z,1.48
2023-02-19T01:53:21.094Z,1.25
2023-02-19T01:55:49.621Z,1.38
2023-02-19T01:58:17.292Z,1.17
2023-02-19T02:00:45.021Z,1.30
2023-02-19T02:03:12.832Z,1.40
2023-02-19T02:05:45.423Z,1.60
2023-02-19T02:08:32.640Z,1.65
2023-02-19T02:11:00.404Z,1.52
2023-02-19T02:13:28.154Z,1.10
2023-02-19T02:16:04.688Z,1.30
2023-02-19T02:18:37.354Z,1.67
2023-02-19T02:21:23.709Z,1.50
2023-02-19T02:23:54.374Z,1.42
2023-02-19T02:26:40.807Z,1.73
2023-02-19T02:29:08.437Z,1.63
2023-02-19T02:31:44.040Z,1.80
2023-02-19T02:34:15.368Z,1.75
2023-02-19T02:36:45.178Z,1.70
2023-02-19T02:39:16.557Z,2.08
2023-02-19T02:41:46.419Z,1.55
2023-02-19T02:44:14.106Z,2.10
2023-02-19T02:46:42.972Z,2.58
2023-02-19T02:49:15.596Z,1.95
2023-02-19T02:51:45.416Z,1.92
2023-02-19T02:55:02.596Z,2.20
2023-02-19T02:57:31.621Z,2.55
2023-02-19T02:59:59.323Z,2.63
2023-02-19T03:02:29.555Z,2.45
2023-02-19T03:05:21.733Z,2.50
2023-02-19T03:10:19.011Z,2.58
2023-02-19T03:13:05.566Z,2.80
2023-02-19T03:15:55.123Z,2.85
2023-02-19T03:19:02.559Z,2.85
2023-02-19T03:21:30.309Z,2.47
2023-02-19T03:24:17.432Z,3.00
2023-02-19T03:26:46.349Z,3.35
2023-02-19T03:29:24.143Z,3.08
2023-02-19T03:31:55.731Z,3.00
2023-02-19T03:34:26.159Z,2.72
2023-02-19T03:37:01.494Z,3.05
2023-02-19T03:39:29.556Z,2.85
2023-02-19T03:42:13.436Z,2.80
2023-02-19T03:45:00.040Z,3.10
2023-02-19T03:47:38.016Z,3.63
2023-02-19T03:50:15.849Z,3.40
2023-02-19T03:52:57.393Z,3.15
2023-02-19T03:55:30.794Z,3.20
2023-02-19T03:58:05.991Z,3.25
2023-02-19T04:00:39.588Z,3.00
2023-02-19T04:03:27.401Z,3.38
2023-02-19T04:05:58.369Z,2.92
2023-02-19T04:08:26.930Z,3.30
2023-02-19T04:11:01.222Z,3.22
2023-02-19T04:13:34.043Z,2.80
2023-02-19T04:16:03.493Z,3.13
2023-02-19T04:18:33.809Z,3.47
2023-02-19T04:21:02.247Z,3.17
2023-02-19T04:23:31.129Z,3.38
2023-02-19T04:26:00.381Z,2.55
2023-02-19T04:28:29.081Z,3.10
2023-02-19T04:30:56.666Z,2.88
2023-02-19T04:33:24.282Z,3.00
2023-02-19T04:35:51.876Z,3.15
2023-02-19T04:38:19.509Z,2.58
2023-02-19T04:40:47.153Z,2.75
2023-02-19T04:43:14.709Z,3.05
2023-02-19T04:45:42.270Z,2.67
2023-02-19T04:48:09.890Z,2.38
2023-02-19T04:50:40.373Z,2.92
2023-02-19T04:53:08.236Z,2.53
2023-02-19T04:55:39.516Z,2.65
2023-02-19T04:58:07.132Z,2.58
2023-02-19T05:00:34.774Z,2.35
2023-02-19T05:03:02.650Z,2.33
2023-02-19T05:05:30.220Z,2.25
2023-02-19T05:07:57.817Z,2.17
2023-02-19T05:10:25.466Z,2.25
2023-02-19T05:12:53.000Z,2.00
2023-02-19T05:15:20.580Z,2.25
2023-02-19T05:17:48.114Z,2.63
2023-02-19T05:20:15.708Z,2.47
2023-02-19T05:22:43.253Z,3.05
2023-02-19T05:25:10.841Z,2.80
2023-02-19T05:27:38.404Z,2.20
2023-02-19T05:30:06.113Z,1.50
2023-02-19T05:32:35.497Z,2.03
2023-02-19T05:35:03.257Z,1.90
2023-02-19T05:37:30.853Z,2.00
2023-02-19T05:39:58.409Z,1.63
2023-02-19T05:42:25.964Z,1.80
2023-02-19T05:44:53.718Z,1.88
2023-02-19T05:47:21.306Z,1.92
2023-02-19T05:49:48.898Z,2.00
2023-02-19T05:52:16.566Z,2.00
2023-02-19T05:54:44.139Z,1.95
2023-02-19T05:57:11.702Z,1.85
2023-02-19T05:59:39.345Z,1.70
2023-02-19T06:02:06.916Z,1.80
2023-02-19T06:04:34.485Z,1.52
2023-02-19T06:07:02.016Z,1.75
2023-02-19T06:09:29.663Z,1.80
2023-02-19T06:11:57.368Z,1.80
2023-02-19T06:14:25.098Z,1.63
2023-02-19T06:16:52.643Z,1.70
2023-02-19T06:19:20.493Z,1.70
2023-02-19T06:21:50.485Z,1.58
2023-02-19T06:24:18.109Z,1.80
2023-02-19T06:26:46.480Z,1.45
2023-02-19T06:29:14.025Z,1.55
2023-02-19T06:31:41.615Z,1.58
2023-02-19T06:34:09.290Z,1.80
2023-02-19T06:36:37.896Z,1.63
2023-02-19T06:39:06.249Z,1.70
2023-02-19T06:41:34.096Z,1.60
2023-02-19T06:44:02.099Z,1.60
2023-02-19T06:46:29.720Z,1.42
2023-02-19T06:48:57.301Z,1.55
2023-02-19T06:51:27.099Z,1.52
2023-02-19T06:53:54.892Z,1.85
2023-02-19T06:56:32.626Z,1.40
2023-02-19T06:59:01.591Z,1.52
2023-02-19T07:01:32.153Z,1.70
2023-02-19T07:03:59.907Z,1.40
2023-02-19T07:06:27.636Z,1.63
2023-02-19T07:08:55.800Z,1.60
2023-02-19T07:11:23.553Z,1.58
2023-02-19T07:13:58.724Z,1.50
2023-02-19T07:16:26.969Z,1.65
2023-02-19T07:18:56.931Z,1.75
2023-02-19T07:21:25.053Z,1.90
2023-02-19T07:23:52.778Z,1.83
2023-02-19T07:26:20.852Z,1.70
2023-02-19T07:28:49.370Z,1.80
2023-02-19T07:31:18.884Z,1.80
2023-02-19T07:33:46.843Z,2.53
2023-02-19T07:36:15.048Z,1.77
2023-02-19T07:38:42.623Z,1.80
2023-02-19T07:41:10.882Z,1.80
2023-02-19T07:43:39.041Z,2.03
2023-02-19T07:46:08.099Z,1.77
2023-02-19T07:48:36.271Z,1.65
2023-02-19T07:51:04.968Z,1.88
2023-02-19T07:53:33.836Z,1.83
2023-02-19T07:56:02.056Z,2.30
2023-02-19T07:58:30.213Z,1.90
2023-02-19T08:01:06.778Z,1.58
2023-02-19T08:03:34.416Z,1.60
2023-02-19T08:06:02.071Z,1.60
2023-02-19T08:08:30.714Z,1.80
2023-02-19T08:11:20.887Z,1.80
2023-02-19T08:13:50.072Z,1.70
2023-02-19T08:16:29.565Z,2.00
2023-02-19T08:19:01.082Z,1.70
2023-02-19T08:21:28.761Z,2.20
2023-02-19T08:23:56.302Z,1.60
2023-02-19T08:26:23.845Z,1.80
2023-02-19T08:28:51.433Z,1.80
2023-02-19T08:31:19.143Z,1.88
2023-02-19T08:33:46.753Z,1.83
2023-02-19T08:36:14.318Z,1.48
2023-02-19T08:38:41.909Z,1.30
2023-02-19T08:41:11.774Z,1.45
2023-02-19T08:43:40.311Z,1.35
2023-02-19T08:46:09.881Z,1.08
2023-02-19T08:48:37.707Z,1.17
2023-02-19T08:51:08.295Z,0.85
2023-02-19T08:53:36.647Z,0.93
2023-02-19T08:56:08.173Z,0.95
2023-02-19T08:58:37.336Z,1.50
2023-02-19T09:01:09.681Z,0.90
2023-02-19T09:03:38.034Z,1.10
2023-02-19T09:06:05.630Z,1.05
2023-02-19T09:08:33.293Z,1.10
2023-02-19T09:11:02.190Z,1.08
2023-02-19T09:13:29.760Z,1.40
2023-02-19T09:15:57.417Z,0.80
2023-02-19T09:18:25.496Z,0.63
2023-02-19T09:20:53.150Z,0.80
2023-02-19T09:23:20.780Z,0.68
2023-02-19T09:25:48.349Z,0.70
2023-02-19T09:28:16.805Z,0.60
2023-02-19T09:30:44.746Z,0.50
2023-02-19T09:33:12.351Z,0.50
2023-02-19T09:35:40.754Z,0.35
2023-02-19T09:38:10.694Z,0.50
2023-02-19T09:40:40.563Z,0.32
2023-02-19T09:43:10.428Z,0.30
2023-02-19T09:45:38.170Z,0.20
2023-02-19T09:48:06.381Z,0.20
2023-02-19T09:50:36.928Z,0.30
2023-02-19T09:53:10.941Z,0.20
2023-02-19T09:55:42.743Z,0.40
2023-02-19T10:00:38.237Z,0.50
2023-02-19T10:03:07.493Z,0.50
2023-02-19T10:05:35.493Z,0.30
2023-02-19T10:08:05.302Z,0.30
2023-02-19T10:10:33.570Z,0.55
2023-02-19T10:13:19.111Z,0.40
2023-02-19T10:15:48.832Z,0.43
2023-02-19T10:18:17.424Z,0.40
2023-02-19T10:20:45.444Z,0.40
2023-02-19T10:23:14.399Z,0.40
2023-02-19T10:25:44.763Z,0.40
2023-02-19T10:28:15.066Z,0.30
2023-02-19T10:30:42.589Z,0.50
2023-02-19T10:33:12.406Z,0.50
2023-02-19T10:35:52.121Z,0.55
2023-02-19T10:38:21.224Z,0.38
2023-02-19T10:40:49.183Z,0.70
2023-02-19T10:43:32.851Z,0.40
2023-02-19T10:46:02.501Z,0.40
2023-02-19T10:48:38.563Z,0.60
2023-02-19T10:51:11.638Z,0.25
2023-02-19T10:53:44.345Z,0.20
2023-02-19T10:56:17.642Z,0.40
2023-02-19T10:58:47.138Z,0.30
2023-02-19T11:01:26.916Z,0.30
2023-02-19T11:04:14.490Z,0.30
2023-02-19T11:06:42.139Z,0.32
2023-02-19T11:09:21.343Z,0.30
2023-02-19T11:11:51.269Z,0.98
2023-02-19T11:14:24.051Z,0.63
2023-02-19T11:16:53.471Z,0.30
2023-02-19T11:19:33.253Z,0.47
2023-02-19T11:22:01.820Z,0.50
2023-02-19T11:24:34.737Z,0.20
2023-02-19T11:27:06.420Z,0.30
2023-02-19T11:29:35.416Z,0.38
2023-02-19T11:32:21.463Z,0.28
2023-02-19T11:34:49.118Z,0.22
2023-02-19T11:37:21.271Z,0.10
2023-02-19T11:39:50.170Z,0.20
2023-02-19T11:42:30.110Z,0.20
2023-02-19T11:45:12.784Z,0.20
2023-02-19T11:47:59.282Z,0.30
2023-02-19T11:50:32.941Z,0.50
2023-02-19T11:53:19.115Z,0.20
2023-02-19T11:56:01.942Z,0.25
2023-02-19T11:58:29.500Z,0.30
2023-02-19T12:01:26.481Z,0.20
2023-02-19T12:03:54.083Z,0.38
2023-02-19T12:06:27.307Z,0.35
2023-02-19T12:09:13.138Z,0.40
2023-02-19T12:12:02.418Z,0.50
2023-02-19T12:14:32.776Z,0.52
2023-02-19T12:17:17.207Z,0.32
2023-02-19T12:19:56.895Z,0.55
2023-02-19T12:22:27.256Z,0.40
2023-02-19T12:25:17.090Z,0.40
2023-02-19T12:27:47.707Z,0.40
2023-02-19T12:30:33.729Z,0.40
2023-02-19T12:33:21.674Z,0.60
2023-02-19T12:35:52.103Z,0.40
2023-02-19T12:38:25.281Z,0.57
2023-02-19T12:41:13.041Z,0.47
2023-02-19T12:43:43.515Z,0.60
2023-02-19T12:46:21.341Z,0.47
2023-02-19T12:49:07.608Z,0.43
2023-02-19T12:51:48.057Z,0.50
2023-02-19T12:54:19.902Z,0.77
2023-02-19T12:57:10.772Z,0.50
2023-02-19T12:59:38.416Z,0.47
2023-02-19T13:02:06.053Z,0.38
2023-02-19T13:04:37.936Z,0.43
2023-02-19T13:09:59.025Z,0.52
2023-02-19T13:12:29.905Z,0.75
2023-02-19T13:15:04.725Z,0.73
2023-02-19T13:17:38.151Z,0.45
2023-02-19T13:20:14.723Z,0.70
2023-02-19T13:23:05.125Z,0.80
2023-02-19T13:25:53.852Z,0.60
2023-02-19T13:28:27.661Z,0.70
2023-02-19T13:31:01.493Z,1.65
2023-02-19T13:33:45.999Z,1.00
2023-02-19T13:36:16.118Z,0.50
2023-02-19T13:38:45.594Z,0.57
2023-02-19T13:41:27.485Z,0.50
2023-02-19T13:43:56.593Z,0.35
2023-02-19T13:46:25.085Z,0.50
2023-02-19T13:49:12.845Z,0.40
2023-02-19T13:51:48.884Z,0.47
2023-02-19T13:54:24.476Z,0.40
2023-02-19T13:57:12.270Z,0.55
2023-02-19T13:59:40.760Z,0.52
2023-02-19T14:02:25.863Z,0.50
2023-02-19T14:05:11.934Z,0.60
2023-02-19T14:07:55.926Z,0.30
2023-02-19T14:10:42.342Z,0.45
2023-02-19T14:13:09.969Z,0.45
2023-02-19T14:15:37.558Z,0.38
2023-02-19T14:18:25.039Z,0.47
2023-02-19T14:21:07.512Z,0.28
2023-02-19T14:23:35.106Z,0.40
2023-02-19T14:26:04.974Z,0.50
2023-02-19T14:28:36.091Z,0.40
2023-02-19T14:31:10.697Z,0.50
2023-02-19T14:33:40.166Z,0.43
2023-02-19T14:36:16.938Z,0.50
2023-02-19T14:38:53.644Z,0.38
2023-02-19T14:41:23.338Z,0.70
2023-02-19T14:43:52.460Z,0.57
2023-02-19T14:46:32.064Z,0.40
2023-02-19T14:49:04.363Z,0.70
2023-02-19T14:51:44.008Z,0.50
2023-02-19T14:54:15.793Z,0.47
2023-02-19T14:56:45.896Z,0.40
2023-02-19T14:59:28.980Z,0.60
2023-02-19T15:01:57.511Z,0.68
2023-02-19T15:04:26.838Z,0.50
2023-02-19T15:06:56.955Z,0.40
2023-02-19T15:09:30.661Z,0.80
2023-02-19T15:11:58.680Z,0.52
2023-02-19T15:14:30.527Z,0.50
2023-02-19T15:19:25.843Z,0.93
2023-02-19T15:21:55.006Z,0.60
2023-02-19T15:24:22.840Z,0.70
2023-02-19T15:26:54.214Z,0.95
2023-02-19T15:29:25.779Z,0.93
2023-02-19T15:31:56.484Z,0.77
2023-02-19T15:34:25.279Z,0.80
2023-02-19T15:37:00.481Z,0.65
2023-02-19T15:39:36.114Z,1.00
2023-02-19T15:42:04.764Z,0.68
2023-02-19T15:44:35.228Z,0.90
2023-02-19T15:47:12.065Z,1.55
2023-02-19T15:49:44.909Z,0.90
2023-02-19T15:52:17.438Z,0.80
2023-02-19T15:54:50.993Z,0.77
2023-02-19T15:57:21.868Z,0.70
2023-02-19T15:59:51.554Z,0.90
2023-02-19T16:02:19.362Z,0.80
2023-02-19T16:04:46.929Z,0.73
2023-02-19T16:07:23.625Z,0.90
2023-02-19T16:10:04.845Z,0.82
2023-02-19T16:12:32.710Z,0.60
2023-02-19T16:15:00.330Z,1.08
2023-02-19T16:17:28.204Z,0.82
2023-02-19T16:20:00.513Z,1.00
2023-02-19T16:22:29.926Z,0.82
2023-02-19T16:24:59.102Z,0.63
2023-02-19T16:27:37.219Z,0.82
2023-02-19T16:30:28.033Z,0.70
2023-02-19T16:33:14.214Z,0.80
2023-02-19T16:35:41.811Z,0.77
2023-02-19T16:38:18.609Z,0.80
2023-02-19T16:40:46.366Z,0.55
2023-02-19T16:43:13.886Z,0.90
2023-02-19T16:45:45.533Z,1.17
2023-02-19T16:48:13.730Z,1.00
2023-02-19T16:50:42.152Z,0.85
2023-02-19T16:53:19.143Z,1.17
2023-02-19T16:55:47.793Z,0.88
2023-02-19T16:58:15.334Z,0.90
2023-02-19T17:00:42.938Z,1.05
2023-02-19T17:03:12.086Z,0.90
2023-02-19T17:05:40.000Z,1.30
2023-02-19T17:08:23.428Z,1.10
2023-02-19T17:10:51.040Z,0.88
2023-02-19T17:13:18.574Z,0.90
2023-02-19T17:15:46.157Z,0.95
2023-02-19T17:18:13.746Z,1.00
2023-02-19T17:20:41.672Z,0.77
2023-02-19T17:23:09.418Z,1.10
2023-02-19T17:25:37.073Z,0.80
2023-02-19T17:28:04.648Z,1.00
2023-02-19T17:30:33.403Z,1.25
2023-02-19T17:33:01.444Z,1.20
2023-02-19T17:35:28.991Z,1.65
2023-02-19T17:37:56.519Z,1.27
2023-02-19T17:40:32.790Z,1.30
2023-02-19T17:43:01.529Z,1.20
2023-02-19T17:45:29.272Z,0.90
2023-02-19T17:47:56.801Z,1.13
2023-02-19T17:50:25.383Z,0.95
2023-02-19T17:52:52.933Z,0.80
2023-02-19T17:55:20.749Z,1.10
2023-02-19T17:57:49.735Z,1.00
2023-02-19T18:00:18.495Z,0.82
2023-02-19T18:02:46.128Z,1.10
2023-02-19T18:05:13.713Z,0.95
2023-02-19T18:07:41.584Z,0.90
2023-02-19T18:10:09.400Z,1.00
2023-02-19T18:12:36.977Z,1.02
2023-02-19T18:15:04.642Z,1.10
2023-02-19T18:17:32.187Z,1.00
2023-02-19T18:19:59.745Z,1.00
2023-02-19T18:22:27.341Z,1.02
2023-02-19T18:24:55.065Z,0.90
2023-02-19T18:27:23.493Z,1.30
2023-02-19T18:29:54.841Z,1.00
2023-02-19T18:32:23.431Z,0.90
2023-02-19T18:34:52.065Z,1.40
2023-02-19T18:37:19.982Z,1.00
2023-02-19T18:39:47.598Z,1.27
2023-02-19T18:42:15.394Z,1.00
2023-02-19T18:44:43.318Z,1.20
2023-02-19T18:47:11.956Z,1.30
2023-02-19T18:49:39.524Z,1.20
2023-02-19T18:52:07.358Z,1.30
2023-02-19T18:54:34.935Z,1.08
2023-02-19T18:57:03.688Z,1.35
2023-02-19T18:59:31.725Z,1.77
2023-02-19T19:01:59.290Z,2.28
2023-02-19T19:04:27.229Z,1.20
2023-02-19T19:06:54.822Z,1.25
2023-02-19T19:09:22.548Z,1.10
2023-02-19T19:11:50.234Z,1.20
2023-02-19T19:14:17.759Z,1.27
2023-02-19T19:16:45.286Z,1.20
2023-02-19T19:19:13.250Z,1.48
2023-02-19T19:21:40.819Z,1.77
2023-02-19T19:24:08.856Z,1.30
2023-02-19T19:26:36.460Z,1.60
2023-02-19T19:29:04.352Z,1.00
2023-02-19T19:31:35.993Z,1.50
2023-02-19T19:34:03.950Z,1.60
2023-02-19T19:36:31.563Z,1.40
2023-02-19T19:38:59.093Z,1.40
2023-02-19T19:41:26.672Z,1.40
2023-02-19T19:43:54.276Z,1.20
2023-02-19T19:46:21.987Z,1.23
2023-02-19T19:48:50.463Z,1.15
2023-02-19T19:51:18.126Z,1.10
2023-02-19T19:53:49.257Z,1.38
2023-02-19T19:56:17.391Z,1.50
2023-02-19T19:58:44.936Z,1.35
2023-02-19T20:01:14.957Z,1.23
2023-02-19T20:03:42.476Z,1.25
2023-02-19T20:06:10.020Z,1.23
2023-02-19T20:08:37.560Z,1.17
2023-02-19T20:11:05.191Z,1.50
2023-02-19T20:13:34.371Z,1.20
2023-02-19T20:16:01.964Z,1.45
2023-02-19T20:18:30.398Z,1.40
2023-02-19T20:20:58.033Z,1.20
2023-02-19T20:23:27.326Z,1.20
2023-02-19T20:25:56.357Z,1.67
2023-02-19T20:28:23.987Z,1.48
2023-02-19T20:30:51.723Z,1.02
2023-02-19T20:33:19.292Z,1.38
2023-02-19T20:35:46.835Z,1.30
2023-02-19T20:38:17.504Z,1.42
2023-02-19T20:40:45.111Z,1.17
2023-02-19T20:43:12.663Z,1.20
2023-02-19T20:45:40.975Z,1.50
2023-02-19T20:48:08.557Z,1.30
2023-02-19T20:50:36.168Z,1.20
2023-02-19T20:53:03.730Z,1.25
2023-02-19T20:55:31.860Z,1.52
2023-02-19T20:57:59.514Z,1.25
2023-02-19T21:00:27.150Z,1.27
2023-02-19T21:02:54.787Z,1.30
2023-02-19T21:05:22.421Z,1.65
2023-02-19T21:07:50.122Z,1.23
2023-02-19T21:10:17.719Z,1.63
2023-02-19T21:12:45.286Z,1.40
2023-02-19T21:15:14.608Z,1.30
2023-02-19T21:17:45.734Z,1.23
2023-02-19T21:20:13.751Z,1.40
2023-02-19T21:22:41.336Z,1.40
2023-02-19T21:25:08.908Z,1.13
2023-02-19T21:27:36.968Z,1.52
2023-02-19T21:30:05.460Z,1.75
2023-02-19T21:32:33.132Z,1.30
2023-02-19T21:35:00.699Z,1.48
2023-02-19T21:37:28.537Z,1.30
2023-02-19T21:39:56.507Z,1.20
2023-02-19T21:42:24.034Z,1.33
2023-02-19T21:44:51.597Z,1.42
2023-02-19T21:47:19.205Z,1.30
2023-02-19T21:49:46.870Z,1.55
2023-02-19T21:52:14.512Z,1.17
2023-02-19T21:54:42.046Z,1.13
2023-02-19T21:57:09.651Z,1.45
2023-02-19T21:59:37.340Z,1.35
2023-02-19T22:02:04.901Z,1.73
2023-02-19T22:04:32.513Z,1.58
2023-02-19T22:07:00.114Z,1.20
2023-02-19T22:09:27.651Z,1.55
2023-02-19T22:11:55.228Z,1.50
2023-02-19T22:14:22.850Z,1.45
2023-02-19T22:16:51.647Z,1.63
2023-02-19T22:19:19.308Z,1.60
2023-02-19T22:21:47.012Z,1.20
2023-02-19T22:24:16.510Z,1.30
2023-02-19T22:26:44.852Z,1.45
2023-02-19T22:29:13.529Z,1.80
2023-02-19T22:31:41.188Z,1.15
2023-02-19T22:34:09.027Z,1.30
2023-02-19T22:36:37.725Z,1.40
2023-02-19T22:39:06.469Z,1.50
2023-02-19T22:41:34.170Z,1.48
2023-02-19T22:44:01.717Z,1.75
2023-02-19T22:46:31.184Z,1.25
2023-02-19T22:48:59.169Z,1.50
2023-02-19T22:51:27.005Z,1.27
2023-02-19T22:53:56.262Z,1.33
2023-02-19T22:56:25.126Z,1.50
2023-02-19T22:58:52.874Z,1.45
2023-02-19T23:01:21.264Z,1.50
2023-02-19T23:03:49.849Z,1.55
2023-02-19T23:06:18.336Z,1.45
2023-02-19T23:08:45.917Z,1.20
2023-02-19T23:11:13.582Z,1.30
2023-02-19T23:13:42.475Z,1.60
2023-02-19T23:16:10.401Z,1.30
2023-02-19T23:18:38.280Z,1.40
2023-02-19T23:21:05.829Z,1.23
2023-02-19T23:23:33.477Z,1.33
2023-02-19T23:26:01.067Z,1.33
2023-02-19T23:28:28.740Z,1.42
2023-02-19T23:30:56.455Z,1.38
2023-02-19T23:33:24.144Z,1.48
2023-02-19T23:35:51.885Z,1.60
2023-02-19T23:38:19.621Z,1.52
2023-02-19T23:40:47.392Z,1.48
2023-02-19T23:43:14.948Z,1.65
2023-02-19T23:45:42.510Z,1.50
2023-02-19T23:48:10.173Z,1.25
2023-02-19T23:50:37.713Z,1.50
2023-02-19T23:53:05.744Z,1.23
2023-02-19T23:55:33.312Z,1.65
2023-02-19T23:58:00.903Z,1.50
